createdAt,value
2023-05-14T00:02:21.520Z,64.00
2023-05-14T00:04:47.877Z,63.83
2023-05-14T00:07:14.280Z,63.94
2023-05-14T00:09:40.718Z,63.86
2023-05-14T00:12:07.116Z,63.94
2023-05-14T00:14:33.529Z,63.83
2023-05-14T00:16:59.931Z,63.93
2023-05-14T00:19:26.310Z,64.00
2023-05-14T00:21:52.680Z,63.75
2023-05-14T00:24:19.102Z,63.54
2023-05-14T00:26:45.515Z,63.40
2023-05-14T00:29:11.870Z,62.99
2023-05-14T00:31:38.348Z,62.64
2023-05-14T00:34:04.667Z,62.56
2023-05-14T00:36:31.056Z,62.37
2023-05-14T00:38:57.490Z,62.19
2023-05-14T00:41:23.896Z,62.14
2023-05-14T00:43:50.306Z,61.95
2023-05-14T00:46:16.724Z,62.03
2023-05-14T00:48:43.086Z,62.00
2023-05-14T00:51:09.482Z,61.96
2023-05-14T00:53:35.854Z,61.92
2023-05-14T00:56:02.220Z,62.23
2023-05-14T00:58:28.592Z,60.93
2023-05-14T01:00:55.073Z,60.85
2023-05-14T01:03:21.513Z,60.35
2023-05-14T01:05:47.808Z,59.89
2023-05-14T01:08:14.229Z,59.49
2023-05-14T01:10:40.655Z,59.00
2023-05-14T01:13:07.030Z,58.74
2023-05-14T01:15:33.384Z,58.83
2023-05-14T01:17:59.840Z,58.83
2023-05-14T01:20:26.427Z,59.22
2023-05-14T01:22:52.645Z,59.26
2023-05-14T01:25:19.004Z,59.52
2023-05-14T01:27:45.419Z,59.59
2023-05-14T01:30:11.788Z,59.41
2023-05-14T01:32:38.234Z,59.05
2023-05-14T01:35:04.564Z,59.23
2023-05-14T01:37:30.984Z,59.14
2023-05-14T01:39:57.343Z,58.98
2023-05-14T01:42:23.760Z,58.86
2023-05-14T01:44:50.235Z,58.63
2023-05-14T01:47:16.612Z,58.83
2023-05-14T01:49:42.968Z,58.98
2023-05-14T01:52:09.363Z,58.73
2023-05-14T01:54:35.772Z,58.70
2023-05-14T01:57:02.193Z,58.45
2023-05-14T01:59:28.584Z,58.69
2023-05-14T02:01:55.025Z,58.96
2023-05-14T02:04:21.453Z,59.99
2023-05-14T02:06:47.804Z,60.23
2023-05-14T02:09:14.220Z,60.53
2023-05-14T02:11:40.576Z,61.15
2023-05-14T02:14:06.939Z,61.25
2023-05-14T02:16:33.474Z,61.70
2023-05-14T02:18:59.771Z,61.91
2023-05-14T02:21:26.190Z,61.67
2023-05-14T02:23:52.610Z,62.04
2023-05-14T02:26:19.018Z,62.31
2023-05-14T02:28:45.379Z,62.71
2023-05-14T02:31:11.789Z,63.16
2023-05-14T02:33:38.188Z,63.52
2023-05-14T02:36:04.506Z,64.12
2023-05-14T02:38:30.939Z,65.02
2023-05-14T02:40:57.301Z,65.49
2023-05-14T02:43:23.764Z,65.37
2023-05-14T02:45:50.116Z,65.49
2023-05-14T02:48:16.522Z,65.61
2023-05-14T02:50:42.879Z,65.84
2023-05-14T02:53:09.269Z,66.11
2023-05-14T02:55:35.661Z,66.05
2023-05-14T02:58:02.103Z,65.84
2023-05-14T03:00:28.497Z,65.66
2023-05-14T03:02:54.951Z,65.65
2023-05-14T03:05:21.273Z,65.12
2023-05-14T03:07:47.657Z,64.87
2023-05-14T03:10:14.021Z,64.27
2023-05-14T03:12:40.418Z,64.38
2023-05-14T03:15:06.810Z,63.91
2023-05-14T03:17:33.244Z,63.42
2023-05-14T03:19:59.615Z,63.31
2023-05-14T03:22:26.030Z,63.09
2023-05-14T03:24:52.424Z,63.18
2023-05-14T03:27:18.818Z,63.25
2023-05-14T03:29:45.190Z,63.56
2023-05-14T03:32:11.560Z,63.92
2023-05-14T03:34:37.945Z,64.10
2023-05-14T03:37:04.327Z,63.94
2023-05-14T03:39:30.691Z,64.27
2023-05-14T03:41:57.110Z,65.31
2023-05-14T03:44:23.478Z,65.93
2023-05-14T03:46:49.864Z,66.95
2023-05-14T03:49:16.299Z,68.45
2023-05-14T03:51:42.713Z,68.44
2023-05-14T03:54:09.092Z,70.66
2023-05-14T03:56:35.526Z,70.56
2023-05-14T03:59:01.880Z,70.41
2023-05-14T04:01:28.290Z,71.07
2023-05-14T04:03:54.777Z,71.63
2023-05-14T04:06:21.103Z,71.56
2023-05-14T04:08:47.461Z,72.92
2023-05-14T04:11:13.918Z,72.87
2023-05-14T04:13:40.319Z,72.59
2023-05-14T04:16:06.738Z,72.62
2023-05-14T04:18:33.158Z,72.71
2023-05-14T04:20:59.497Z,73.11
2023-05-14T04:23:28.148Z,73.65
2023-05-14T04:25:54.540Z,73.47
2023-05-14T04:28:20.936Z,73.41
2023-05-14T04:30:47.341Z,73.41
2023-05-14T04:33:13.749Z,73.08
2023-05-14T04:35:40.122Z,73.50
2023-05-14T04:38:06.678Z,73.21
2023-05-14T04:40:33.027Z,73.64
2023-05-14T04:42:59.407Z,72.83
2023-05-14T04:45:25.839Z,72.77
2023-05-14T04:47:52.300Z,72.91
2023-05-14T04:50:18.614Z,72.85
2023-05-14T04:52:45.019Z,72.73
2023-05-14T04:55:11.440Z,73.78
2023-05-14T04:57:37.945Z,72.91
2023-05-14T05:00:04.295Z,72.97
2023-05-14T05:02:30.754Z,73.82
2023-05-14T05:04:57.349Z,74.57
2023-05-14T05:07:23.909Z,76.21
2023-05-14T05:09:50.319Z,77.22
2023-05-14T05:12:16.778Z,79.61
2023-05-14T05:14:43.186Z,81.07
2023-05-14T05:17:09.567Z,79.98
2023-05-14T05:19:43.226Z,80.37
2023-05-14T05:22:04.480Z,80.97
2023-05-14T05:24:30.870Z,82.36
2023-05-14T05:26:57.274Z,82.92
2023-05-14T05:29:23.617Z,84.06
2023-05-14T05:31:50.102Z,86.16
2023-05-14T05:34:16.466Z,88.71
2023-05-14T05:36:42.825Z,91.05
2023-05-14T05:39:09.272Z,93.62
2023-05-14T05:41:35.632Z,96.07
2023-05-14T05:44:02.054Z,97.82
2023-05-14T05:46:28.491Z,99.80
2023-05-14T05:48:54.802Z,100.00
2023-05-14T05:51:21.275Z,100.00
2023-05-14T05:53:47.694Z,100.00
2023-05-14T05:56:14.093Z,100.00
2023-05-14T05:58:40.549Z,100.00
2023-05-14T06:01:07.969Z,100.00
2023-05-14T06:03:34.374Z,100.00
2023-05-14T06:06:00.764Z,100.00
2023-05-14T06:08:27.146Z,100.00
2023-05-14T06:10:53.525Z,100.00
2023-05-14T06:13:19.969Z,100.00
2023-05-14T06:15:46.389Z,100.00
2023-05-14T06:18:12.754Z,100.00
2023-05-14T06:20:39.316Z,100.00
2023-05-14T06:23:05.737Z,100.00
2023-05-14T06:25:32.088Z,100.00
2023-05-14T06:27:58.531Z,100.00
2023-05-14T06:30:25.143Z,100.00
2023-05-14T06:32:51.293Z,100.00
2023-05-14T06:35:17.720Z,100.00
2023-05-14T06:37:44.133Z,100.00
2023-05-14T06:40:10.529Z,100.00
2023-05-14T06:42:36.972Z,100.00
2023-05-14T06:45:03.379Z,100.00
2023-05-14T06:47:29.796Z,100.00
2023-05-14T06:49:56.129Z,100.00
2023-05-14T06:52:22.542Z,100.00
2023-05-14T06:54:48.931Z,100.00
2023-05-14T06:57:15.342Z,100.00
2023-05-14T06:59:41.717Z,100.00
2023-05-14T07:02:08.137Z,100.00
